sensor_id;sensor_type;location;lat;lon;timestamp;temperature;humidity
25983;DHT22;13773;48.868;10.730;2022-12-20T00:02:03;-2.50;99.90
25983;DHT22;13773;48.868;10.730;2022-12-20T00:04:29;-0.70;99.90
25983;DHT22;13773;48.868;10.730;2022-12-20T00:06:54;-0.70;99.90
25983;DHT22;13773;48.868;10.730;2022-12-20T00:09:20;-0.70;99.90
25983;DHT22;13773;48.868;10.730;2022-12-20T00:11:46;0.50;99.90
25983;DHT22;13773;48.868;10.730;2022-12-20T00:14:12;-0.60;99.90
25983;DHT22;13773;48.868;10.730;2022-12-20T00:16:38;-0.60;99.90
25983;DHT22;13773;48.868;10.730;2022-12-20T00:19:05;-0.70;99.90
25983;DHT22;13773;48.868;10.730;2022-12-20T00:21:32;-0.70;99.90
25983;DHT22;13773;48.868;10.730;2022-12-20T00:23:58;-0.70;99.90
25983;DHT22;13773;48.868;10.730;2022-12-20T00:26:27;-0.70;99.90
25983;DHT22;13773;48.868;10.730;2022-12-20T00:28:54;-0.70;99.90
25983;DHT22;13773;48.868;10.730;2022-12-20T00:31:22;-0.70;99.90
25983;DHT22;13773;48.868;10.730;2022-12-20T00:33:50;-0.70;99.90
25983;DHT22;13773;48.868;10.730;2022-12-20T00:36:17;-0.70;99.90
25983;DHT22;13773;48.868;10.730;2022-12-20T00:38:47;-0.70;99.90
25983;DHT22;13773;48.868;10.730;2022-12-20T00:41:15;-0.70;99.90
25983;DHT22;13773;48.868;10.730;2022-12-20T00:43:41;-0.80;99.90
25983;DHT22;13773;48.868;10.730;2022-12-20T00:46:08;-0.70;99.90
25983;DHT22;13773;48.868;10.730;2022-12-20T00:48:34;-0.80;99.90
25983;DHT22;13773;48.868;10.730;2022-12-20T00:51:04;-0.50;99.90
25983;DHT22;13773;48.868;10.730;2022-12-20T00:53:31;-0.90;99.90
25983;DHT22;13773;48.868;10.730;2022-12-20T00:55:57;-1.00;99.90
25983;DHT22;13773;48.868;10.730;2022-12-20T00:58:23;-1.00;99.90
25983;DHT22;13773;48.868;10.730;2022-12-20T01:00:49;-1.00;99.90
25983;DHT22;13773;48.868;10.730;2022-12-20T01:03:15;-1.10;99.90
25983;DHT22;13773;48.868;10.730;2022-12-20T01:05:55;-1.20;99.90
25983;DHT22;13773;48.868;10.730;2022-12-20T01:08:22;-1.20;99.90
25983;DHT22;13773;48.868;10.730;2022-12-20T01:11:10;-1.20;99.90
25983;DHT22;13773;48.868;10.730;2022-12-20T01:13:39;-1.20;99.90
25983;DHT22;13773;48.868;10.730;2022-12-20T01:16:10;-1.20;99.90
25983;DHT22;13773;48.868;10.730;2022-12-20T01:18:37;-1.20;99.90
25983;DHT22;13773;48.868;10.730;2022-12-20T01:21:05;-1.20;99.90
25983;DHT22;13773;48.868;10.730;2022-12-20T01:23:31;-1.20;99.90
25983;DHT22;13773;48.868;10.730;2022-12-20T01:26:01;-1.10;99.90
25983;DHT22;13773;48.868;10.730;2022-12-20T01:28:30;-1.10;99.90
25983;DHT22;13773;48.868;10.730;2022-12-20T01:30:56;-1.00;99.90
25983;DHT22;13773;48.868;10.730;2022-12-20T01:33:22;-1.10;99.90
25983;DHT22;13773;48.868;10.730;2022-12-20T01:36:02;-1.10;99.90
25983;DHT22;13773;48.868;10.730;2022-12-20T01:38:28;-1.00;99.90
25983;DHT22;13773;48.868;10.730;2022-12-20T01:40:55;-1.00;99.90
25983;DHT22;13773;48.868;10.730;2022-12-20T01:43:22;-1.00;99.90
25983;DHT22;13773;48.868;10.730;2022-12-20T01:45:48;-0.90;99.90
25983;DHT22;13773;48.868;10.730;2022-12-20T01:48:17;-1.00;99.90
25983;DHT22;13773;48.868;10.730;2022-12-20T01:50:46;-1.00;99.90
25983;DHT22;13773;48.868;10.730;2022-12-20T01:53:13;-0.60;99.90
25983;DHT22;13773;48.868;10.730;2022-12-20T01:55:39;-0.80;99.90
25983;DHT22;13773;48.868;10.730;2022-12-20T01:58:08;-0.80;99.90
25983;DHT22;13773;48.868;10.730;2022-12-20T02:00:34;-0.80;99.90
25983;DHT22;13773;48.868;10.730;2022-12-20T02:03:04;-0.80;99.90
25983;DHT22;13773;48.868;10.730;2022-12-20T02:05:36;-0.80;99.90
25983;DHT22;13773;48.868;10.730;2022-12-20T02:08:03;-0.80;99.90
25983;DHT22;13773;48.868;10.730;2022-12-20T02:13:15;-0.80;99.90
25983;DHT22;13773;48.868;10.730;2022-12-20T02:15:53;-0.80;99.90
25983;DHT22;13773;48.868;10.730;2022-12-20T02:18:28;-0.80;99.90
25983;DHT22;13773;48.868;10.730;2022-12-20T02:34:32;-0.60;99.90
25983;DHT22;13773;48.868;10.730;2022-12-20T02:36:59;-0.60;99.90
25983;DHT22;13773;48.868;10.730;2022-12-20T02:39:27;-0.50;99.90
25983;DHT22;13773;48.868;10.730;2022-12-20T02:42:37;-0.60;99.90
25983;DHT22;13773;48.868;10.730;2022-12-20T02:44:51;-0.70;99.90
25983;DHT22;13773;48.868;10.730;2022-12-20T02:47:39;-0.70;99.90
25983;DHT22;13773;48.868;10.730;2022-12-20T02:50:07;-0.70;99.90
25983;DHT22;13773;48.868;10.730;2022-12-20T02:52:34;-0.70;99.90
25983;DHT22;13773;48.868;10.730;2022-12-20T02:55:01;-0.60;99.90
25983;DHT22;13773;48.868;10.730;2022-12-20T02:57:38;-0.70;99.90
25983;DHT22;13773;48.868;10.730;2022-12-20T03:00:16;-0.70;99.90
25983;DHT22;13773;48.868;10.730;2022-12-20T03:02:44;-0.60;99.90
25983;DHT22;13773;48.868;10.730;2022-12-20T03:05:32;-0.60;99.90
25983;DHT22;13773;48.868;10.730;2022-12-20T03:07:59;-0.50;99.90
25983;DHT22;13773;48.868;10.730;2022-12-20T03:10:25;-0.50;99.90
25983;DHT22;13773;48.868;10.730;2022-12-20T03:12:51;-0.50;99.90
25983;DHT22;13773;48.868;10.730;2022-12-20T03:15:17;-0.60;99.90
25983;DHT22;13773;48.868;10.730;2022-12-20T03:17:43;-0.60;99.90
25983;DHT22;13773;48.868;10.730;2022-12-20T03:20:09;-0.70;99.90
25983;DHT22;13773;48.868;10.730;2022-12-20T03:22:36;-0.30;99.90
25983;DHT22;13773;48.868;10.730;2022-12-20T03:25:02;-0.40;99.90
25983;DHT22;13773;48.868;10.730;2022-12-20T03:27:28;-0.40;99.90
25983;DHT22;13773;48.868;10.730;2022-12-20T03:29:54;-0.50;99.90
25983;DHT22;13773;48.868;10.730;2022-12-20T03:32:21;-0.50;99.90
25983;DHT22;13773;48.868;10.730;2022-12-20T03:34:47;-0.60;99.90
25983;DHT22;13773;48.868;10.730;2022-12-20T03:37:12;-0.60;99.90
25983;DHT22;13773;48.868;10.730;2022-12-20T03:39:38;-0.50;99.90
25983;DHT22;13773;48.868;10.730;2022-12-20T03:42:04;-0.60;99.90
25983;DHT22;13773;48.868;10.730;2022-12-20T03:44:29;-0.50;99.90
25983;DHT22;13773;48.868;10.730;2022-12-20T03:46:55;-0.50;99.90
25983;DHT22;13773;48.868;10.730;2022-12-20T03:49:21;-0.50;99.90
25983;DHT22;13773;48.868;10.730;2022-12-20T03:51:46;-0.60;99.90
25983;DHT22;13773;48.868;10.730;2022-12-20T03:54:12;-0.40;99.90
25983;DHT22;13773;48.868;10.730;2022-12-20T03:56:38;-0.50;99.90
25983;DHT22;13773;48.868;10.730;2022-12-20T03:59:04;-0.40;99.90
25983;DHT22;13773;48.868;10.730;2022-12-20T04:01:29;-0.30;99.90
25983;DHT22;13773;48.868;10.730;2022-12-20T04:03:56;-0.40;99.90
25983;DHT22;13773;48.868;10.730;2022-12-20T04:06:24;-0.40;99.90
25983;DHT22;13773;48.868;10.730;2022-12-20T04:08:50;-0.40;99.90
25983;DHT22;13773;48.868;10.730;2022-12-20T04:11:16;-0.30;99.90
25983;DHT22;13773;48.868;10.730;2022-12-20T04:13:46;-0.40;99.90
25983;DHT22;13773;48.868;10.730;2022-12-20T04:16:14;-0.40;99.90
25983;DHT22;13773;48.868;10.730;2022-12-20T04:18:40;-0.40;99.90
25983;DHT22;13773;48.868;10.730;2022-12-20T04:21:07;-0.40;99.90
25983;DHT22;13773;48.868;10.730;2022-12-20T04:23:34;-0.40;99.90
25983;DHT22;13773;48.868;10.730;2022-12-20T04:26:00;-0.40;99.90
25983;DHT22;13773;48.868;10.730;2022-12-20T04:28:27;-0.50;99.90
25983;DHT22;13773;48.868;10.730;2022-12-20T04:30:53;-0.50;99.90
25983;DHT22;13773;48.868;10.730;2022-12-20T04:33:18;-0.50;99.90
25983;DHT22;13773;48.868;10.730;2022-12-20T04:35:44;-0.50;99.90
25983;DHT22;13773;48.868;10.730;2022-12-20T04:38:10;-0.50;99.90
25983;DHT22;13773;48.868;10.730;2022-12-20T04:40:35;-0.30;99.90
25983;DHT22;13773;48.868;10.730;2022-12-20T04:43:01;-0.40;99.90
25983;DHT22;13773;48.868;10.730;2022-12-20T04:45:27;-0.30;99.90
25983;DHT22;13773;48.868;10.730;2022-12-20T04:47:52;-0.20;99.90
25983;DHT22;13773;48.868;10.730;2022-12-20T04:50:18;-0.30;99.90
25983;DHT22;13773;48.868;10.730;2022-12-20T04:52:44;-0.40;99.90
25983;DHT22;13773;48.868;10.730;2022-12-20T04:55:29;-0.50;99.90
25983;DHT22;13773;48.868;10.730;2022-12-20T04:57:55;-0.50;99.90
25983;DHT22;13773;48.868;10.730;2022-12-20T05:00:20;-0.50;99.90
25983;DHT22;13773;48.868;10.730;2022-12-20T05:02:46;-0.60;99.90
25983;DHT22;13773;48.868;10.730;2022-12-20T05:05:12;-0.60;99.90
25983;DHT22;13773;48.868;10.730;2022-12-20T05:07:38;-0.50;99.90
25983;DHT22;13773;48.868;10.730;2022-12-20T05:10:04;-0.40;99.90
25983;DHT22;13773;48.868;10.730;2022-12-20T05:12:30;-0.40;99.90
25983;DHT22;13773;48.868;10.730;2022-12-20T05:14:56;-0.20;99.90
25983;DHT22;13773;48.868;10.730;2022-12-20T05:17:22;-0.30;99.90
25983;DHT22;13773;48.868;10.730;2022-12-20T05:19:47;-0.30;99.90
25983;DHT22;13773;48.868;10.730;2022-12-20T05:22:13;-0.30;99.90
25983;DHT22;13773;48.868;10.730;2022-12-20T05:24:57;-0.60;99.90
25983;DHT22;13773;48.868;10.730;2022-12-20T05:27:41;-2.00;99.90
25983;DHT22;13773;48.868;10.730;2022-12-20T05:30:08;-0.70;99.90
25983;DHT22;13773;48.868;10.730;2022-12-20T05:32:33;-0.80;99.90
25983;DHT22;13773;48.868;10.730;2022-12-20T05:34:59;-0.50;99.90
25983;DHT22;13773;48.868;10.730;2022-12-20T05:37:25;-0.90;99.90
25983;DHT22;13773;48.868;10.730;2022-12-20T05:39:50;-0.50;99.90
25983;DHT22;13773;48.868;10.730;2022-12-20T05:42:16;-0.70;99.90
25983;DHT22;13773;48.868;10.730;2022-12-20T05:44:42;-0.80;99.90
25983;DHT22;13773;48.868;10.730;2022-12-20T05:47:08;-0.90;99.90
25983;DHT22;13773;48.868;10.730;2022-12-20T05:49:33;-0.80;99.90
25983;DHT22;13773;48.868;10.730;2022-12-20T05:52:00;-0.80;99.90
25983;DHT22;13773;48.868;10.730;2022-12-20T05:54:26;-0.70;99.90
25983;DHT22;13773;48.868;10.730;2022-12-20T05:56:52;-0.70;99.90
25983;DHT22;13773;48.868;10.730;2022-12-20T05:59:18;-2.70;99.90
25983;DHT22;13773;48.868;10.730;2022-12-20T06:01:44;-0.70;99.90
25983;DHT22;13773;48.868;10.730;2022-12-20T06:04:10;-0.60;99.90
25983;DHT22;13773;48.868;10.730;2022-12-20T06:06:35;-0.60;99.90
25983;DHT22;13773;48.868;10.730;2022-12-20T06:09:01;-0.30;99.90
25983;DHT22;13773;48.868;10.730;2022-12-20T06:11:26;-0.30;99.90
25983;DHT22;13773;48.868;10.730;2022-12-20T06:13:52;-0.50;99.90
25983;DHT22;13773;48.868;10.730;2022-12-20T06:16:18;0.80;99.90
25983;DHT22;13773;48.868;10.730;2022-12-20T06:18:45;-0.40;99.90
25983;DHT22;13773;48.868;10.730;2022-12-20T06:21:11;-0.50;99.90
25983;DHT22;13773;48.868;10.730;2022-12-20T06:23:37;-0.50;99.90
25983;DHT22;13773;48.868;10.730;2022-12-20T06:26:03;-0.50;99.90
25983;DHT22;13773;48.868;10.730;2022-12-20T06:28:29;-0.40;99.90
25983;DHT22;13773;48.868;10.730;2022-12-20T06:30:56;-0.30;99.90
25983;DHT22;13773;48.868;10.730;2022-12-20T06:33:23;-0.30;99.90
25983;DHT22;13773;48.868;10.730;2022-12-20T06:35:49;-0.30;99.90
25983;DHT22;13773;48.868;10.730;2022-12-20T06:38:15;-0.20;99.90
25983;DHT22;13773;48.868;10.730;2022-12-20T06:40:41;-0.30;99.90
25983;DHT22;13773;48.868;10.730;2022-12-20T06:43:07;-0.20;99.90
25983;DHT22;13773;48.868;10.730;2022-12-20T06:45:33;-0.20;99.90
25983;DHT22;13773;48.868;10.730;2022-12-20T06:47:59;-0.20;99.90
25983;DHT22;13773;48.868;10.730;2022-12-20T06:50:24;-0.20;99.90
25983;DHT22;13773;48.868;10.730;2022-12-20T06:52:51;-0.20;99.90
25983;DHT22;13773;48.868;10.730;2022-12-20T06:55:16;-0.30;99.90
25983;DHT22;13773;48.868;10.730;2022-12-20T06:57:42;-0.30;99.90
25983;DHT22;13773;48.868;10.730;2022-12-20T07:00:08;-0.20;99.90
25983;DHT22;13773;48.868;10.730;2022-12-20T07:02:37;-0.20;99.90
25983;DHT22;13773;48.868;10.730;2022-12-20T07:05:03;-0.10;99.90
25983;DHT22;13773;48.868;10.730;2022-12-20T07:07:29;-0.20;99.90
25983;DHT22;13773;48.868;10.730;2022-12-20T07:09:55;-0.20;99.90
25983;DHT22;13773;48.868;10.730;2022-12-20T07:12:20;-0.20;99.90
25983;DHT22;13773;48.868;10.730;2022-12-20T07:14:46;-0.10;99.90
25983;DHT22;13773;48.868;10.730;2022-12-20T07:17:12;-0.10;99.90
25983;DHT22;13773;48.868;10.730;2022-12-20T07:19:38;-0.10;99.90
25983;DHT22;13773;48.868;10.730;2022-12-20T07:22:04;-0.10;99.90
25983;DHT22;13773;48.868;10.730;2022-12-20T07:24:31;0.20;99.90
25983;DHT22;13773;48.868;10.730;2022-12-20T07:26:57;-0.10;99.90
25983;DHT22;13773;48.868;10.730;2022-12-20T07:29:23;-0.10;99.90
25983;DHT22;13773;48.868;10.730;2022-12-20T07:31:50;-0.10;99.90
25983;DHT22;13773;48.868;10.730;2022-12-20T07:34:16;-0.20;99.90
25983;DHT22;13773;48.868;10.730;2022-12-20T07:36:42;0.30;99.90
25983;DHT22;13773;48.868;10.730;2022-12-20T07:39:07;-0.20;99.90
25983;DHT22;13773;48.868;10.730;2022-12-20T07:41:33;-0.20;99.90
25983;DHT22;13773;48.868;10.730;2022-12-20T07:44:00;-0.10;99.90
25983;DHT22;13773;48.868;10.730;2022-12-20T07:46:26;-0.10;99.90
25983;DHT22;13773;48.868;10.730;2022-12-20T07:48:52;0.20;99.90
25983;DHT22;13773;48.868;10.730;2022-12-20T07:51:22;0.20;99.90
25983;DHT22;13773;48.868;10.730;2022-12-20T07:54:25;0.10;99.90
25983;DHT22;13773;48.868;10.730;2022-12-20T07:56:47;0.10;99.90
25983;DHT22;13773;48.868;10.730;2022-12-20T07:59:19;0.20;99.90
25983;DHT22;13773;48.868;10.730;2022-12-20T08:01:46;0.20;99.90
25983;DHT22;13773;48.868;10.730;2022-12-20T08:04:20;0.20;99.90
25983;DHT22;13773;48.868;10.730;2022-12-20T08:06:46;0.20;99.90
25983;DHT22;13773;48.868;10.730;2022-12-20T08:09:13;0.10;99.90
25983;DHT22;13773;48.868;10.730;2022-12-20T08:11:42;0.20;99.90
25983;DHT22;13773;48.868;10.730;2022-12-20T08:14:09;0.10;99.90
25983;DHT22;13773;48.868;10.730;2022-12-20T08:16:35;0.10;99.90
25983;DHT22;13773;48.868;10.730;2022-12-20T08:19:01;0.10;99.90
25983;DHT22;13773;48.868;10.730;2022-12-20T08:21:27;0.00;99.90
25983;DHT22;13773;48.868;10.730;2022-12-20T08:23:53;0.10;99.90
25983;DHT22;13773;48.868;10.730;2022-12-20T08:26:19;0.20;99.90
25983;DHT22;13773;48.868;10.730;2022-12-20T08:28:44;0.20;99.90
25983;DHT22;13773;48.868;10.730;2022-12-20T08:31:11;0.20;99.90
25983;DHT22;13773;48.868;10.730;2022-12-20T08:33:37;0.20;99.90
25983;DHT22;13773;48.868;10.730;2022-12-20T08:36:07;0.30;99.90
25983;DHT22;13773;48.868;10.730;2022-12-20T08:38:33;0.30;99.90
25983;DHT22;13773;48.868;10.730;2022-12-20T08:41:18;0.30;99.90
25983;DHT22;13773;48.868;10.730;2022-12-20T08:43:43;0.30;99.90
25983;DHT22;13773;48.868;10.730;2022-12-20T08:46:10;0.50;99.90
25983;DHT22;13773;48.868;10.730;2022-12-20T08:48:37;0.40;99.90
25983;DHT22;13773;48.868;10.730;2022-12-20T08:51:05;0.40;99.90
25983;DHT22;13773;48.868;10.730;2022-12-20T08:53:32;0.30;99.90
25983;DHT22;13773;48.868;10.730;2022-12-20T08:56:11;0.40;99.90
25983;DHT22;13773;48.868;10.730;2022-12-20T08:58:37;0.50;99.90
25983;DHT22;13773;48.868;10.730;2022-12-20T09:01:09;0.60;99.90
25983;DHT22;13773;48.868;10.730;2022-12-20T09:03:36;0.80;99.90
25983;DHT22;13773;48.868;10.730;2022-12-20T09:06:16;0.80;99.90
25983;DHT22;13773;48.868;10.730;2022-12-20T09:08:42;0.70;99.90
25983;DHT22;13773;48.868;10.730;2022-12-20T09:13:44;0.90;99.90
25983;DHT22;13773;48.868;10.730;2022-12-20T09:16:12;1.00;99.90
25983;DHT22;13773;48.868;10.730;2022-12-20T09:18:38;1.20;99.90
25983;DHT22;13773;48.868;10.730;2022-12-20T09:21:05;1.20;99.90
25983;DHT22;13773;48.868;10.730;2022-12-20T09:23:32;1.40;99.90
25983;DHT22;13773;48.868;10.730;2022-12-20T09:26:08;1.60;99.90
25983;DHT22;13773;48.868;10.730;2022-12-20T09:28:34;1.60;99.90
25983;DHT22;13773;48.868;10.730;2022-12-20T09:31:05;1.60;99.90
25983;DHT22;13773;48.868;10.730;2022-12-20T09:33:32;1.60;99.90
25983;DHT22;13773;48.868;10.730;2022-12-20T09:35:59;1.70;99.90
25983;DHT22;13773;48.868;10.730;2022-12-20T09:38:26;1.70;99.90
25983;DHT22;13773;48.868;10.730;2022-12-20T09:40:54;1.80;99.90
25983;DHT22;13773;48.868;10.730;2022-12-20T09:43:21;1.90;99.90
25983;DHT22;13773;48.868;10.730;2022-12-20T09:45:59;1.80;99.90
25983;DHT22;13773;48.868;10.730;2022-12-20T09:48:29;1.70;99.90
25983;DHT22;13773;48.868;10.730;2022-12-20T09:56:15;2.00;99.90
25983;DHT22;13773;48.868;10.730;2022-12-20T09:59:04;2.10;99.90
25983;DHT22;13773;48.868;10.730;2022-12-20T10:01:32;2.10;99.90
25983;DHT22;13773;48.868;10.730;2022-12-20T10:16:56;2.80;99.90
25983;DHT22;13773;48.868;10.730;2022-12-20T10:20:07;2.70;99.90
25983;DHT22;13773;48.868;10.730;2022-12-20T10:25:01;2.50;99.90
25983;DHT22;13773;48.868;10.730;2022-12-20T10:27:27;2.40;99.90
25983;DHT22;13773;48.868;10.730;2022-12-20T10:29:53;2.70;99.90
25983;DHT22;13773;48.868;10.730;2022-12-20T10:32:22;2.50;99.90
25983;DHT22;13773;48.868;10.730;2022-12-20T10:35:00;2.50;99.90
25983;DHT22;13773;48.868;10.730;2022-12-20T10:40:33;2.50;99.90
25983;DHT22;13773;48.868;10.730;2022-12-20T10:43:00;2.60;99.90
25983;DHT22;13773;48.868;10.730;2022-12-20T10:45:37;2.60;99.90
25983;DHT22;13773;48.868;10.730;2022-12-20T10:48:30;2.60;99.90
25983;DHT22;13773;48.868;10.730;2022-12-20T10:53:35;2.50;99.90
25983;DHT22;13773;48.868;10.730;2022-12-20T10:56:24;2.60;99.90
25983;DHT22;13773;48.868;10.730;2022-12-20T10:59:00;2.60;99.90
25983;DHT22;13773;48.868;10.730;2022-12-20T11:01:31;2.80;99.90
25983;DHT22;13773;48.868;10.730;2022-12-20T11:04:03;3.20;99.90
25983;DHT22;13773;48.868;10.730;2022-12-20T11:06:49;3.20;99.90
25983;DHT22;13773;48.868;10.730;2022-12-20T11:09:23;3.10;99.90
25983;DHT22;13773;48.868;10.730;2022-12-20T11:12:02;3.00;99.90
25983;DHT22;13773;48.868;10.730;2022-12-20T11:14:30;2.90;99.90
25983;DHT22;13773;48.868;10.730;2022-12-20T11:16:57;3.10;99.90
25983;DHT22;13773;48.868;10.730;2022-12-20T11:27:18;3.10;99.90
25983;DHT22;13773;48.868;10.730;2022-12-20T11:33:01;3.60;99.90
25983;DHT22;13773;48.868;10.730;2022-12-20T11:40:28;3.80;99.90
25983;DHT22;13773;48.868;10.730;2022-12-20T11:51:32;3.70;99.90
25983;DHT22;13773;48.868;10.730;2022-12-20T11:54:27;3.90;99.90
25983;DHT22;13773;48.868;10.730;2022-12-20T11:56:59;4.70;99.90
25983;DHT22;13773;48.868;10.730;2022-12-20T12:02:20;3.80;99.90
25983;DHT22;13773;48.868;10.730;2022-12-20T12:07:46;3.90;99.90
25983;DHT22;13773;48.868;10.730;2022-12-20T12:10:26;3.90;99.90
25983;DHT22;13773;48.868;10.730;2022-12-20T12:13:11;4.10;99.90
25983;DHT22;13773;48.868;10.730;2022-12-20T12:15:50;4.20;99.90
25983;DHT22;13773;48.868;10.730;2022-12-20T12:18:26;4.00;99.90
25983;DHT22;13773;48.868;10.730;2022-12-20T12:21:06;3.80;99.90
25983;DHT22;13773;48.868;10.730;2022-12-20T12:24:03;3.90;99.90
25983;DHT22;13773;48.868;10.730;2022-12-20T12:26:36;4.00;99.90
25983;DHT22;13773;48.868;10.730;2022-12-20T12:29:09;3.90;99.90
25983;DHT22;13773;48.868;10.730;2022-12-20T12:34:33;3.40;99.90
25983;DHT22;13773;48.868;10.730;2022-12-20T12:45:56;3.10;99.90
25983;DHT22;13773;48.868;10.730;2022-12-20T12:51:40;3.20;99.90
25983;DHT22;13773;48.868;10.730;2022-12-20T12:54:21;3.10;99.90
25983;DHT22;13773;48.868;10.730;2022-12-20T12:56:49;3.10;99.90
25983;DHT22;13773;48.868;10.730;2022-12-20T12:59:22;2.90;99.90
25983;DHT22;13773;48.868;10.730;2022-12-20T13:02:18;3.30;99.90
25983;DHT22;13773;48.868;10.730;2022-12-20T13:17:51;2.80;99.90
25983;DHT22;13773;48.868;10.730;2022-12-20T13:25:47;2.90;99.90
25983;DHT22;13773;48.868;10.730;2022-12-20T13:33:46;3.00;99.90
25983;DHT22;13773;48.868;10.730;2022-12-20T13:41:32;3.00;99.90
25983;DHT22;13773;48.868;10.730;2022-12-20T13:49:24;2.70;99.90
25983;DHT22;13773;48.868;10.730;2022-12-20T13:54:39;2.90;99.90
25983;DHT22;13773;48.868;10.730;2022-12-20T13:57:06;2.90;99.90
25983;DHT22;13773;48.868;10.730;2022-12-20T13:59:33;2.70;99.90
25983;DHT22;13773;48.868;10.730;2022-12-20T14:02:02;2.60;99.90
25983;DHT22;13773;48.868;10.730;2022-12-20T14:04:43;3.10;99.90
25983;DHT22;13773;48.868;10.730;2022-12-20T14:07:15;2.80;99.90
25983;DHT22;13773;48.868;10.730;2022-12-20T14:09:45;2.80;99.90
25983;DHT22;13773;48.868;10.730;2022-12-20T14:12:15;2.90;99.90
25983;DHT22;13773;48.868;10.730;2022-12-20T14:14:46;2.80;99.90
25983;DHT22;13773;48.868;10.730;2022-12-20T14:22:29;2.60;99.90
25983;DHT22;13773;48.868;10.730;2022-12-20T14:24:55;2.70;99.90
25983;DHT22;13773;48.868;10.730;2022-12-20T14:27:21;2.60;99.90
25983;DHT22;13773;48.868;10.730;2022-12-20T14:29:47;2.70;99.90
25983;DHT22;13773;48.868;10.730;2022-12-20T14:32:18;2.70;99.90
25983;DHT22;13773;48.868;10.730;2022-12-20T14:34:45;2.70;99.90
25983;DHT22;13773;48.868;10.730;2022-12-20T14:37:36;2.50;99.90
25983;DHT22;13773;48.868;10.730;2022-12-20T14:42:38;2.20;99.90
25983;DHT22;13773;48.868;10.730;2022-12-20T14:47:33;2.10;99.90
25983;DHT22;13773;48.868;10.730;2022-12-20T14:50:02;2.20;99.90
25983;DHT22;13773;48.868;10.730;2022-12-20T14:57:31;1.90;99.90
25983;DHT22;13773;48.868;10.730;2022-12-20T15:00:13;1.90;99.90
25983;DHT22;13773;48.868;10.730;2022-12-20T15:10:35;1.90;99.90
25983;DHT22;13773;48.868;10.730;2022-12-20T15:13:01;1.90;99.90
25983;DHT22;13773;48.868;10.730;2022-12-20T15:15:27;1.80;99.90
25983;DHT22;13773;48.868;10.730;2022-12-20T15:17:52;1.80;99.90
25983;DHT22;13773;48.868;10.730;2022-12-20T15:20:18;1.80;99.90
25983;DHT22;13773;48.868;10.730;2022-12-20T15:22:44;1.80;99.90
25983;DHT22;13773;48.868;10.730;2022-12-20T15:25:16;1.70;99.90
25983;DHT22;13773;48.868;10.730;2022-12-20T15:27:42;1.80;99.90
25983;DHT22;13773;48.868;10.730;2022-12-20T15:30:12;1.80;99.90
25983;DHT22;13773;48.868;10.730;2022-12-20T15:32:41;1.70;99.90
25983;DHT22;13773;48.868;10.730;2022-12-20T15:35:13;1.70;99.90
25983;DHT22;13773;48.868;10.730;2022-12-20T15:37:39;1.70;99.90
25983;DHT22;13773;48.868;10.730;2022-12-20T15:40:06;1.70;99.90
25983;DHT22;13773;48.868;10.730;2022-12-20T15:42:32;1.60;99.90
25983;DHT22;13773;48.868;10.730;2022-12-20T15:44:57;1.60;99.90
25983;DHT22;13773;48.868;10.730;2022-12-20T15:47:23;1.50;99.90
25983;DHT22;13773;48.868;10.730;2022-12-20T15:49:49;1.50;99.90
25983;DHT22;13773;48.868;10.730;2022-12-20T15:52:20;1.50;99.90
25983;DHT22;13773;48.868;10.730;2022-12-20T15:54:46;1.50;99.90
25983;DHT22;13773;48.868;10.730;2022-12-20T15:57:13;1.60;99.90
25983;DHT22;13773;48.868;10.730;2022-12-20T15:59:39;1.50;99.90
25983;DHT22;13773;48.868;10.730;2022-12-20T16:02:23;1.50;99.90
25983;DHT22;13773;48.868;10.730;2022-12-20T16:04:49;1.60;99.90
25983;DHT22;13773;48.868;10.730;2022-12-20T16:07:15;1.60;99.90
25983;DHT22;13773;48.868;10.730;2022-12-20T16:09:41;1.60;99.90
25983;DHT22;13773;48.868;10.730;2022-12-20T16:12:20;1.60;99.90
25983;DHT22;13773;48.868;10.730;2022-12-20T16:14:46;1.70;99.90
25983;DHT22;13773;48.868;10.730;2022-12-20T16:17:12;1.70;99.90
25983;DHT22;13773;48.868;10.730;2022-12-20T16:19:39;2.10;99.90
25983;DHT22;13773;48.868;10.730;2022-12-20T16:22:05;1.80;99.90
25983;DHT22;13773;48.868;10.730;2022-12-20T16:24:31;1.70;99.90
25983;DHT22;13773;48.868;10.730;2022-12-20T16:26:57;1.80;99.90
25983;DHT22;13773;48.868;10.730;2022-12-20T16:29:23;1.80;99.90
25983;DHT22;13773;48.868;10.730;2022-12-20T16:31:49;1.70;99.90
25983;DHT22;13773;48.868;10.730;2022-12-20T16:34:16;1.60;99.90
25983;DHT22;13773;48.868;10.730;2022-12-20T16:36:43;1.50;99.90
25983;DHT22;13773;48.868;10.730;2022-12-20T16:39:09;2.00;99.90
25983;DHT22;13773;48.868;10.730;2022-12-20T16:41:35;1.60;99.90
25983;DHT22;13773;48.868;10.730;2022-12-20T16:44:02;1.80;99.90
25983;DHT22;13773;48.868;10.730;2022-12-20T16:46:30;3.70;99.90
25983;DHT22;13773;48.868;10.730;2022-12-20T16:48:57;1.50;99.90
25983;DHT22;13773;48.868;10.730;2022-12-20T16:51:30;1.50;99.90
25983;DHT22;13773;48.868;10.730;2022-12-20T16:53:58;1.60;99.90
25983;DHT22;13773;48.868;10.730;2022-12-20T16:56:25;1.70;99.90
25983;DHT22;13773;48.868;10.730;2022-12-20T16:58:51;2.00;99.90
25983;DHT22;13773;48.868;10.730;2022-12-20T17:01:20;1.60;99.90
25983;DHT22;13773;48.868;10.730;2022-12-20T17:03:49;1.60;99.90
25983;DHT22;13773;48.868;10.730;2022-12-20T17:06:15;1.50;99.90
25983;DHT22;13773;48.868;10.730;2022-12-20T17:08:43;1.60;99.90
25983;DHT22;13773;48.868;10.730;2022-12-20T17:13:42;1.40;99.90
25983;DHT22;13773;48.868;10.730;2022-12-20T17:16:12;1.40;99.90
25983;DHT22;13773;48.868;10.730;2022-12-20T17:18:40;1.50;99.90
25983;DHT22;13773;48.868;10.730;2022-12-20T17:23:44;1.20;99.90
25983;DHT22;13773;48.868;10.730;2022-12-20T17:26:21;1.10;99.90
25983;DHT22;13773;48.868;10.730;2022-12-20T17:28:48;1.20;99.90
25983;DHT22;13773;48.868;10.730;2022-12-20T17:33:51;1.20;99.90
25983;DHT22;13773;48.868;10.730;2022-12-20T17:36:17;1.40;99.90
25983;DHT22;13773;48.868;10.730;2022-12-20T17:38:43;1.40;99.90
25983;DHT22;13773;48.868;10.730;2022-12-20T17:41:26;1.60;99.90
25983;DHT22;13773;48.868;10.730;2022-12-20T17:43:53;1.70;99.90
25983;DHT22;13773;48.868;10.730;2022-12-20T17:46:19;1.60;99.90
25983;DHT22;13773;48.868;10.730;2022-12-20T17:48:45;2.00;99.90
25983;DHT22;13773;48.868;10.730;2022-12-20T17:51:18;1.40;99.90
25983;DHT22;13773;48.868;10.730;2022-12-20T17:53:45;1.40;99.90
25983;DHT22;13773;48.868;10.730;2022-12-20T17:56:17;1.50;99.90
25983;DHT22;13773;48.868;10.730;2022-12-20T17:58:44;1.20;99.90
25983;DHT22;13773;48.868;10.730;2022-12-20T18:01:23;1.20;99.90
25983;DHT22;13773;48.868;10.730;2022-12-20T18:03:50;1.20;99.90
25983;DHT22;13773;48.868;10.730;2022-12-20T18:06:16;1.10;99.90
25983;DHT22;13773;48.868;10.730;2022-12-20T18:08:42;1.10;99.90
25983;DHT22;13773;48.868;10.730;2022-12-20T18:11:08;1.20;99.90
25983;DHT22;13773;48.868;10.730;2022-12-20T18:13:35;1.10;99.90
25983;DHT22;13773;48.868;10.730;2022-12-20T18:16:07;1.20;99.90